sensor_id;sensor_type;location;lat;lon;timestamp;pressure;altitude;pressure_sealevel;temperature;humidity
41140;BME280;26881;48.784;9.192;2023-12-20T00:04:16;98581.53;;;6.51;90.04
41140;BME280;26881;48.784;9.192;2023-12-20T00:09:38;98568.34;;;6.56;89.60
41140;BME280;26881;48.784;9.192;2023-12-20T00:15:00;98567.50;;;6.35;91.48
41140;BME280;26881;48.784;9.192;2023-12-20T00:20:22;98567.69;;;6.51;91.66
41140;BME280;26881;48.784;9.192;2023-12-20T00:25:44;98557.81;;;6.59;91.74
41140;BME280;26881;48.784;9.192;2023-12-20T00:31:06;98556.47;;;6.50;93.34
41140;BME280;26881;48.784;9.192;2023-12-20T00:36:28;98541.63;;;6.52;94.10
41140;BME280;26881;48.784;9.192;2023-12-20T00:41:50;98544.31;;;6.51;96.46
41140;BME280;26881;48.784;9.192;2023-12-20T00:47:12;98534.81;;;6.50;98.55
41140;BME280;26881;48.784;9.192;2023-12-20T00:52:35;98545.94;;;6.53;99.31
41140;BME280;26881;48.784;9.192;2023-12-20T00:57:56;98531.13;;;6.35;100.00
41140;BME280;26881;48.784;9.192;2023-12-20T01:03:18;98532.63;;;6.20;100.00
41140;BME280;26881;48.784;9.192;2023-12-20T01:08:40;98542.06;;;6.01;100.00
41140;BME280;26881;48.784;9.192;2023-12-20T01:14:02;98559.41;;;6.00;100.00
41140;BME280;26881;48.784;9.192;2023-12-20T01:19:24;98558.06;;;5.90;100.00
41140;BME280;26881;48.784;9.192;2023-12-20T01:24:46;98562.75;;;5.80;100.00
41140;BME280;26881;48.784;9.192;2023-12-20T01:30:09;98568.13;;;5.76;100.00
41140;BME280;26881;48.784;9.192;2023-12-20T01:35:31;98569.28;;;5.68;100.00
41140;BME280;26881;48.784;9.192;2023-12-20T01:40:53;98576.31;;;5.66;100.00
41140;BME280;26881;48.784;9.192;2023-12-20T01:46:15;98572.97;;;5.63;100.00
41140;BME280;26881;48.784;9.192;2023-12-20T01:51:38;98580.16;;;5.78;100.00
41140;BME280;26881;48.784;9.192;2023-12-20T01:57:00;98570.50;;;5.82;100.00
41140;BME280;26881;48.784;9.192;2023-12-20T02:02:23;98567.38;;;5.74;100.00
41140;BME280;26881;48.784;9.192;2023-12-20T02:07:44;98566.69;;;5.68;100.00
41140;BME280;26881;48.784;9.192;2023-12-20T02:13:07;98567.78;;;5.63;100.00
41140;BME280;26881;48.784;9.192;2023-12-20T02:18:29;98571.03;;;5.68;100.00
41140;BME280;26881;48.784;9.192;2023-12-20T02:23:51;98570.16;;;5.69;100.00
41140;BME280;26881;48.784;9.192;2023-12-20T02:29:13;98566.09;;;5.62;100.00
41140;BME280;26881;48.784;9.192;2023-12-20T02:34:34;98570.44;;;5.61;100.00
41140;BME280;26881;48.784;9.192;2023-12-20T02:39:56;98569.53;;;5.62;100.00
41140;BME280;26881;48.784;9.192;2023-12-20T02:45:18;98579.91;;;5.62;100.00
41140;BME280;26881;48.784;9.192;2023-12-20T02:50:40;98573.59;;;5.69;100.00
41140;BME280;26881;48.784;9.192;2023-12-20T02:56:02;98570.53;;;5.80;100.00
41140;BME280;26881;48.784;9.192;2023-12-20T03:01:24;98584.75;;;5.72;100.00
41140;BME280;26881;48.784;9.192;2023-12-20T03:06:46;98583.31;;;5.64;100.00
41140;BME280;26881;48.784;9.192;2023-12-20T03:12:08;98581.94;;;5.54;100.00
41140;BME280;26881;48.784;9.192;2023-12-20T03:17:30;98581.25;;;5.51;100.00
41140;BME280;26881;48.784;9.192;2023-12-20T03:22:52;98589.81;;;5.53;100.00
41140;BME280;26881;48.784;9.192;2023-12-20T03:28:15;98591.50;;;5.54;100.00
41140;BME280;26881;48.784;9.192;2023-12-20T03:33:37;98589.03;;;5.51;100.00
41140;BME280;26881;48.784;9.192;2023-12-20T03:38:59;98584.63;;;5.53;100.00
41140;BME280;26881;48.784;9.192;2023-12-20T03:44:21;98594.81;;;5.57;100.00
41140;BME280;26881;48.784;9.192;2023-12-20T03:49:43;98596.53;;;5.57;100.00
41140;BME280;26881;48.784;9.192;2023-12-20T03:55:05;98610.47;;;5.54;100.00
41140;BME280;26881;48.784;9.192;2023-12-20T04:00:27;98605.19;;;5.57;100.00
41140;BME280;26881;48.784;9.192;2023-12-20T04:05:49;98604.50;;;5.52;100.00
41140;BME280;26881;48.784;9.192;2023-12-20T04:11:11;98621.13;;;5.48;100.00
41140;BME280;26881;48.784;9.192;2023-12-20T04:16:34;98606.31;;;5.50;100.00
41140;BME280;26881;48.784;9.192;2023-12-20T04:21:56;98609.09;;;5.45;100.00
41140;BME280;26881;48.784;9.192;2023-12-20T04:27:18;98623.75;;;5.46;100.00
41140;BME280;26881;48.784;9.192;2023-12-20T04:32:40;98640.94;;;5.49;100.00
41140;BME280;26881;48.784;9.192;2023-12-20T04:38:01;98634.09;;;5.48;100.00
41140;BME280;26881;48.784;9.192;2023-12-20T04:43:24;98627.00;;;5.52;100.00
41140;BME280;26881;48.784;9.192;2023-12-20T04:48:46;98650.97;;;5.58;100.00
41140;BME280;26881;48.784;9.192;2023-12-20T04:54:08;98646.72;;;5.57;100.00
41140;BME280;26881;48.784;9.192;2023-12-20T04:59:31;98642.69;;;5.48;100.00
41140;BME280;26881;48.784;9.192;2023-12-20T05:04:53;98652.66;;;5.36;100.00
41140;BME280;26881;48.784;9.192;2023-12-20T05:10:17;98657.84;;;5.36;100.00
41140;BME280;26881;48.784;9.192;2023-12-20T05:15:38;98662.00;;;5.41;100.00
41140;BME280;26881;48.784;9.192;2023-12-20T05:21:00;98665.53;;;5.39;100.00
41140;BME280;26881;48.784;9.192;2023-12-20T05:26:22;98672.53;;;5.37;100.00
41140;BME280;26881;48.784;9.192;2023-12-20T05:31:44;98673.94;;;5.45;100.00
41140;BME280;26881;48.784;9.192;2023-12-20T05:37:06;98678.59;;;5.36;100.00
41140;BME280;26881;48.784;9.192;2023-12-20T05:42:28;98682.75;;;5.41;100.00
41140;BME280;26881;48.784;9.192;2023-12-20T05:47:50;98699.25;;;5.39;100.00
41140;BME280;26881;48.784;9.192;2023-12-20T05:53:12;98708.22;;;5.30;100.00
41140;BME280;26881;48.784;9.192;2023-12-20T05:58:34;98716.94;;;5.27;100.00
41140;BME280;26881;48.784;9.192;2023-12-20T06:03:55;98721.97;;;5.32;100.00
41140;BME280;26881;48.784;9.192;2023-12-20T06:09:17;98733.13;;;5.34;100.00
41140;BME280;26881;48.784;9.192;2023-12-20T06:14:39;98731.44;;;5.33;100.00
41140;BME280;26881;48.784;9.192;2023-12-20T06:20:01;98731.66;;;5.27;100.00
41140;BME280;26881;48.784;9.192;2023-12-20T06:25:24;98738.56;;;5.26;100.00
41140;BME280;26881;48.784;9.192;2023-12-20T06:30:46;98728.94;;;5.30;100.00
41140;BME280;26881;48.784;9.192;2023-12-20T06:36:12;98717.06;;;5.24;100.00
41140;BME280;26881;48.784;9.192;2023-12-20T06:41:34;98732.72;;;5.21;100.00
41140;BME280;26881;48.784;9.192;2023-12-20T06:46:56;98743.16;;;5.20;100.00
41140;BME280;26881;48.784;9.192;2023-12-20T06:52:18;98750.59;;;5.29;100.00
41140;BME280;26881;48.784;9.192;2023-12-20T06:57:40;98755.41;;;5.40;100.00
41140;BME280;26881;48.784;9.192;2023-12-20T07:03:03;98769.16;;;5.42;100.00
41140;BME280;26881;48.784;9.192;2023-12-20T07:08:25;98768.25;;;5.43;100.00
41140;BME280;26881;48.784;9.192;2023-12-20T07:13:47;98775.13;;;5.45;100.00
41140;BME280;26881;48.784;9.192;2023-12-20T07:19:09;98784.38;;;5.53;100.00
41140;BME280;26881;48.784;9.192;2023-12-20T07:24:31;98797.34;;;5.53;100.00
41140;BME280;26881;48.784;9.192;2023-12-20T07:29:53;98815.66;;;5.48;100.00
41140;BME280;26881;48.784;9.192;2023-12-20T07:35:15;98825.16;;;5.47;100.00
41140;BME280;26881;48.784;9.192;2023-12-20T07:40:38;98827.53;;;5.55;100.00
41140;BME280;26881;48.784;9.192;2023-12-20T07:46:05;98842.94;;;5.60;100.00
41140;BME280;26881;48.784;9.192;2023-12-20T07:51:28;98831.00;;;5.54;100.00
41140;BME280;26881;48.784;9.192;2023-12-20T07:56:49;98828.47;;;5.53;100.00
41140;BME280;26881;48.784;9.192;2023-12-20T08:02:11;98822.16;;;5.60;100.00
41140;BME280;26881;48.784;9.192;2023-12-20T08:07:33;98836.28;;;5.51;100.00
41140;BME280;26881;48.784;9.192;2023-12-20T08:12:56;98829.59;;;5.45;100.00
41140;BME280;26881;48.784;9.192;2023-12-20T08:18:18;98854.91;;;5.37;100.00
41140;BME280;26881;48.784;9.192;2023-12-20T08:23:40;98860.88;;;5.41;97.58
41140;BME280;26881;48.784;9.192;2023-12-20T08:29:02;98869.78;;;5.32;99.04
41140;BME280;26881;48.784;9.192;2023-12-20T08:34:23;98865.34;;;5.36;99.20
41140;BME280;26881;48.784;9.192;2023-12-20T08:39:46;98878.91;;;5.44;97.72
41140;BME280;26881;48.784;9.192;2023-12-20T08:45:08;98892.00;;;5.41;96.08
41140;BME280;26881;48.784;9.192;2023-12-20T08:50:30;98893.69;;;5.42;94.58
41140;BME280;26881;48.784;9.192;2023-12-20T08:55:53;98902.88;;;5.24;94.49
41140;BME280;26881;48.784;9.192;2023-12-20T09:01:15;98888.63;;;5.37;93.54
41140;BME280;26881;48.784;9.192;2023-12-20T09:06:37;98880.72;;;5.42;92.35
41140;BME280;26881;48.784;9.192;2023-12-20T09:11:59;98886.03;;;5.37;93.49
41140;BME280;26881;48.784;9.192;2023-12-20T09:17:21;98883.25;;;5.43;93.88
41140;BME280;26881;48.784;9.192;2023-12-20T09:22:45;98878.91;;;5.44;95.33
41140;BME280;26881;48.784;9.192;2023-12-20T09:28:08;98877.03;;;5.47;95.62
41140;BME280;26881;48.784;9.192;2023-12-20T09:33:30;98888.91;;;5.55;92.75
41140;BME280;26881;48.784;9.192;2023-12-20T09:38:52;98895.28;;;5.71;84.60
41140;BME280;26881;48.784;9.192;2023-12-20T09:44:15;98894.03;;;5.83;81.94
41140;BME280;26881;48.784;9.192;2023-12-20T09:49:42;98901.56;;;5.90;80.67
41140;BME280;26881;48.784;9.192;2023-12-20T09:55:06;98903.75;;;6.26;77.50
41140;BME280;26881;48.784;9.192;2023-12-20T10:00:29;98907.84;;;6.33;75.48
41140;BME280;26881;48.784;9.192;2023-12-20T10:05:54;98906.19;;;6.54;73.11
41140;BME280;26881;48.784;9.192;2023-12-20T10:11:17;98902.78;;;7.20;68.10
41140;BME280;26881;48.784;9.192;2023-12-20T10:16:41;98897.53;;;7.44;66.42
41140;BME280;26881;48.784;9.192;2023-12-20T10:22:04;98880.81;;;7.90;63.40
41140;BME280;26881;48.784;9.192;2023-12-20T10:27:26;98882.44;;;7.52;64.28
41140;BME280;26881;48.784;9.192;2023-12-20T10:32:48;98882.97;;;6.95;66.43
41140;BME280;26881;48.784;9.192;2023-12-20T10:38:11;98878.19;;;6.63;67.27
41140;BME280;26881;48.784;9.192;2023-12-20T10:43:36;98877.84;;;6.48;68.80
41140;BME280;26881;48.784;9.192;2023-12-20T10:48:59;98881.94;;;6.32;71.44
41140;BME280;26881;48.784;9.192;2023-12-20T10:54:23;98883.31;;;6.17;72.88
41140;BME280;26881;48.784;9.192;2023-12-20T10:59:45;98878.38;;;6.11;72.87
41140;BME280;26881;48.784;9.192;2023-12-20T11:16:08;98869.78;;;6.32;68.96
41140;BME280;26881;48.784;9.192;2023-12-20T11:21:30;98864.81;;;6.26;69.59
41140;BME280;26881;48.784;9.192;2023-12-20T11:26:56;98860.22;;;6.09;70.33
41140;BME280;26881;48.784;9.192;2023-12-20T11:37:46;98864.50;;;6.10;70.11
41140;BME280;26881;48.784;9.192;2023-12-20T11:43:11;98858.09;;;5.97;68.13
41140;BME280;26881;48.784;9.192;2023-12-20T11:48:38;98857.06;;;6.01;68.18
41140;BME280;26881;48.784;9.192;2023-12-20T11:54:00;98861.81;;;5.88;67.30
41140;BME280;26881;48.784;9.192;2023-12-20T11:59:22;98855.34;;;5.75;67.93
41140;BME280;26881;48.784;9.192;2023-12-20T12:04:45;98850.84;;;5.80;66.81
41140;BME280;26881;48.784;9.192;2023-12-20T12:10:07;98842.53;;;5.70;67.65
41140;BME280;26881;48.784;9.192;2023-12-20T12:15:29;98833.59;;;5.79;67.63
41140;BME280;26881;48.784;9.192;2023-12-20T12:21:00;98826.16;;;5.94;67.65
41140;BME280;26881;48.784;9.192;2023-12-20T12:26:24;98812.81;;;6.28;65.67
41140;BME280;26881;48.784;9.192;2023-12-20T12:31:46;98810.16;;;6.29;66.86
41140;BME280;26881;48.784;9.192;2023-12-20T12:37:08;98810.66;;;6.39;66.52
41140;BME280;26881;48.784;9.192;2023-12-20T12:42:30;98805.03;;;6.50;64.73
41140;BME280;26881;48.784;9.192;2023-12-20T12:47:52;98803.16;;;6.53;64.59
41140;BME280;26881;48.784;9.192;2023-12-20T12:53:16;98797.19;;;6.51;64.33
41140;BME280;26881;48.784;9.192;2023-12-20T12:58:38;98811.66;;;6.35;64.85
41140;BME280;26881;48.784;9.192;2023-12-20T13:04:00;98810.53;;;6.42;65.31
41140;BME280;26881;48.784;9.192;2023-12-20T13:09:25;98814.50;;;6.29;66.24
41140;BME280;26881;48.784;9.192;2023-12-20T13:14:47;98808.22;;;6.35;65.36
41140;BME280;26881;48.784;9.192;2023-12-20T13:20:09;98815.28;;;6.31;65.31
41140;BME280;26881;48.784;9.192;2023-12-20T13:25:30;98816.28;;;6.27;64.54
41140;BME280;26881;48.784;9.192;2023-12-20T13:30:52;98805.47;;;6.39;65.54
41140;BME280;26881;48.784;9.192;2023-12-20T13:36:14;98797.88;;;6.99;62.28
41140;BME280;26881;48.784;9.192;2023-12-20T13:41:36;98801.16;;;7.25;63.17
41140;BME280;26881;48.784;9.192;2023-12-20T13:46:58;98807.81;;;6.89;63.15
41140;BME280;26881;48.784;9.192;2023-12-20T13:52:20;98815.91;;;6.38;64.21
41140;BME280;26881;48.784;9.192;2023-12-20T13:57:42;98818.00;;;6.28;64.97
41140;BME280;26881;48.784;9.192;2023-12-20T14:03:16;98818.00;;;6.28;65.26
41140;BME280;26881;48.784;9.192;2023-12-20T14:08:38;98808.81;;;6.19;66.51
41140;BME280;26881;48.784;9.192;2023-12-20T14:13:59;98794.94;;;6.20;66.51
41140;BME280;26881;48.784;9.192;2023-12-20T14:19:23;98782.00;;;6.19;66.42
41140;BME280;26881;48.784;9.192;2023-12-20T14:24:45;98780.47;;;6.13;68.17
41140;BME280;26881;48.784;9.192;2023-12-20T14:30:07;98769.53;;;6.05;69.29
41140;BME280;26881;48.784;9.192;2023-12-20T14:35:29;98772.78;;;6.10;69.42
41140;BME280;26881;48.784;9.192;2023-12-20T14:40:51;98776.69;;;5.98;70.23
41140;BME280;26881;48.784;9.192;2023-12-20T14:46:13;98779.66;;;5.87;72.92
41140;BME280;26881;48.784;9.192;2023-12-20T14:51:35;98780.09;;;5.75;75.59
41140;BME280;26881;48.784;9.192;2023-12-20T14:56:59;98780.75;;;5.57;77.71
41140;BME280;26881;48.784;9.192;2023-12-20T15:02:26;98773.91;;;5.54;78.10
41140;BME280;26881;48.784;9.192;2023-12-20T15:07:48;98771.78;;;5.65;78.39
41140;BME280;26881;48.784;9.192;2023-12-20T15:13:10;98775.50;;;5.58;79.13
41140;BME280;26881;48.784;9.192;2023-12-20T15:18:34;98782.66;;;5.52;78.73
41140;BME280;26881;48.784;9.192;2023-12-20T15:23:56;98793.34;;;5.67;78.33
41140;BME280;26881;48.784;9.192;2023-12-20T15:29:27;98785.88;;;5.58;78.98
41140;BME280;26881;48.784;9.192;2023-12-20T15:34:49;98784.59;;;5.70;78.95
41140;BME280;26881;48.784;9.192;2023-12-20T15:40:11;98778.16;;;5.57;80.26
41140;BME280;26881;48.784;9.192;2023-12-20T15:45:33;98777.44;;;5.53;83.81
41140;BME280;26881;48.784;9.192;2023-12-20T15:50:56;98783.97;;;5.38;81.99
41140;BME280;26881;48.784;9.192;2023-12-20T15:56:19;98798.38;;;5.47;81.85
41140;BME280;26881;48.784;9.192;2023-12-20T16:01:41;98785.06;;;5.33;83.27
41140;BME280;26881;48.784;9.192;2023-12-20T16:07:14;98794.59;;;5.32;84.43
41140;BME280;26881;48.784;9.192;2023-12-20T16:12:36;98793.00;;;5.28;85.16
41140;BME280;26881;48.784;9.192;2023-12-20T16:17:57;98798.66;;;5.39;83.98
41140;BME280;26881;48.784;9.192;2023-12-20T16:23:20;98790.56;;;5.23;84.84
41140;BME280;26881;48.784;9.192;2023-12-20T16:28:42;98794.22;;;5.18;85.95
41140;BME280;26881;48.784;9.192;2023-12-20T16:34:04;98781.13;;;5.21;86.55
41140;BME280;26881;48.784;9.192;2023-12-20T16:39:28;98778.81;;;5.13;87.54
41140;BME280;26881;48.784;9.192;2023-12-20T16:44:50;98769.69;;;5.01;87.93
41140;BME280;26881;48.784;9.192;2023-12-20T16:50:12;98756.09;;;4.95;89.04
41140;BME280;26881;48.784;9.192;2023-12-20T16:55:34;98761.16;;;4.98;88.88
41140;BME280;26881;48.784;9.192;2023-12-20T17:00:56;98762.06;;;4.97;88.00
41140;BME280;26881;48.784;9.192;2023-12-20T17:06:24;98765.78;;;4.90;88.70
41140;BME280;26881;48.784;9.192;2023-12-20T17:11:47;98754.34;;;4.95;88.02
41140;BME280;26881;48.784;9.192;2023-12-20T17:17:09;98743.28;;;4.90;88.46
41140;BME280;26881;48.784;9.192;2023-12-20T17:22:31;98761.44;;;4.90;87.71
41140;BME280;26881;48.784;9.192;2023-12-20T17:27:53;98740.19;;;4.79;88.14
41140;BME280;26881;48.784;9.192;2023-12-20T17:33:15;98731.28;;;4.88;88.22
41140;BME280;26881;48.784;9.192;2023-12-20T17:38:37;98738.13;;;4.89;87.82
41140;BME280;26881;48.784;9.192;2023-12-20T17:44:01;98743.97;;;4.95;86.94
41140;BME280;26881;48.784;9.192;2023-12-20T17:49:33;98751.63;;;4.98;87.36
41140;BME280;26881;48.784;9.192;2023-12-20T17:54:59;98752.00;;;4.88;88.34
41140;BME280;26881;48.784;9.192;2023-12-20T18:00:24;98741.53;;;4.91;87.48
41140;BME280;26881;48.784;9.192;2023-12-20T18:05:46;98751.94;;;4.89;88.01
41140;BME280;26881;48.784;9.192;2023-12-20T18:11:09;98742.22;;;4.96;87.06
41140;BME280;26881;48.784;9.192;2023-12-20T18:16:31;98741.88;;;5.06;86.48
41140;BME280;26881;48.784;9.192;2023-12-20T18:21:57;98742.03;;;5.02;87.04
41140;BME280;26881;48.784;9.192;2023-12-20T18:27:19;98735.19;;;4.99;86.43
41140;BME280;26881;48.784;9.192;2023-12-20T18:32:41;98730.91;;;4.98;86.18
41140;BME280;26881;48.784;9.192;2023-12-20T18:38:03;98737.84;;;4.98;86.76
41140;BME280;26881;48.784;9.192;2023-12-20T18:43:26;98740.81;;;5.12;85.29
41140;BME280;26881;48.784;9.192;2023-12-20T18:48:48;98725.56;;;5.03;85.51
41140;BME280;26881;48.784;9.192;2023-12-20T18:54:10;98741.88;;;5.06;85.24
41140;BME280;26881;48.784;9.192;2023-12-20T18:59:32;98727.28;;;5.04;85.42
41140;BME280;26881;48.784;9.192;2023-12-20T19:04:53;98721.22;;;5.03;85.58
41140;BME280;26881;48.784;9.192;2023-12-20T19:10:15;98716.16;;;5.00;85.97
41140;BME280;26881;48.784;9.192;2023-12-20T19:15:37;98717.69;;;5.06;85.06
41140;BME280;26881;48.784;9.192;2023-12-20T19:20:59;98725.56;;;5.03;84.63
41140;BME280;26881;48.784;9.192;2023-12-20T19:26:21;98708.00;;;5.11;84.31
41140;BME280;26881;48.784;9.192;2023-12-20T19:31:43;98694.13;;;5.12;84.79
41140;BME280;26881;48.784;9.192;2023-12-20T19:37:08;98695.56;;;4.96;86.01
41140;BME280;26881;48.784;9.192;2023-12-20T19:42:31;98679.81;;;5.02;85.11
41140;BME280;26881;48.784;9.192;2023-12-20T19:47:53;98664.25;;;5.02;84.76
41140;BME280;26881;48.784;9.192;2023-12-20T19:53:15;98661.78;;;4.99;85.43
41140;BME280;26881;48.784;9.192;2023-12-20T19:58:37;98673.03;;;4.98;85.94
41140;BME280;26881;48.784;9.192;2023-12-20T20:04:00;98662.00;;;4.93;85.82
41140;BME280;26881;48.784;9.192;2023-12-20T20:09:22;98657.66;;;4.93;85.71
41140;BME280;26881;48.784;9.192;2023-12-20T20:14:44;98639.88;;;4.82;86.37
41140;BME280;26881;48.784;9.192;2023-12-20T20:20:07;98627.03;;;4.79;88.14
41140;BME280;26881;48.784;9.192;2023-12-20T20:25:29;98646.28;;;4.72;89.39
41140;BME280;26881;48.784;9.192;2023-12-20T20:30:51;98633.28;;;4.74;89.31
41140;BME280;26881;48.784;9.192;2023-12-20T20:36:13;98631.41;;;4.77;89.59
41140;BME280;26881;48.784;9.192;2023-12-20T20:41:35;98640.97;;;4.75;89.30
41140;BME280;26881;48.784;9.192;2023-12-20T20:46:57;98634.38;;;4.92;87.97
41140;BME280;26881;48.784;9.192;2023-12-20T20:52:18;98641.31;;;4.91;87.86
41140;BME280;26881;48.784;9.192;2023-12-20T20:57:40;98650.78;;;4.92;86.99
41140;BME280;26881;48.784;9.192;2023-12-20T21:03:03;98638.53;;;4.96;86.51
41140;BME280;26881;48.784;9.192;2023-12-20T21:08:25;98634.97;;;5.00;86.06
41140;BME280;26881;48.784;9.192;2023-12-20T21:13:47;98625.38;;;5.02;85.77
41140;BME280;26881;48.784;9.192;2023-12-20T21:19:09;98602.19;;;4.99;85.51
41140;BME280;26881;48.784;9.192;2023-12-20T21:24:31;98598.47;;;5.06;84.95
41140;BME280;26881;48.784;9.192;2023-12-20T21:29:53;98594.28;;;5.02;84.52
41140;BME280;26881;48.784;9.192;2023-12-20T21:35:15;98594.78;;;5.12;83.50
41140;BME280;26881;48.784;9.192;2023-12-20T21:40:37;98581.03;;;5.10;83.59
41140;BME280;26881;48.784;9.192;2023-12-20T21:45:59;98575.69;;;5.14;82.97
41140;BME280;26881;48.784;9.192;2023-12-20T21:51:24;98549.13;;;5.07;83.66
41140;BME280;26881;48.784;9.192;2023-12-20T21:56:47;98535.56;;;5.01;84.27
41140;BME280;26881;48.784;9.192;2023-12-20T22:02:12;98531.31;;;4.98;84.90
41140;BME280;26881;48.784;9.192;2023-12-20T22:07:34;98535.56;;;5.01;84.27
41140;BME280;26881;48.784;9.192;2023-12-20T22:12:56;98540.84;;;4.98;84.87
41140;BME280;26881;48.784;9.192;2023-12-20T22:18:18;98523.16;;;5.09;84.42
41140;BME280;26881;48.784;9.192;2023-12-20T22:23:39;98537.13;;;5.05;85.44
41140;BME280;26881;48.784;9.192;2023-12-20T22:29:01;98517.59;;;5.20;84.53
41140;BME280;26881;48.784;9.192;2023-12-20T22:34:23;98512.97;;;5.26;84.08
41140;BME280;26881;48.784;9.192;2023-12-20T22:39:45;98517.28;;;5.27;84.20
41140;BME280;26881;48.784;9.192;2023-12-20T22:45:08;98515.53;;;5.28;84.18
41140;BME280;26881;48.784;9.192;2023-12-20T22:50:30;98503.41;;;5.28;84.65
41140;BME280;26881;48.784;9.192;2023-12-20T22:55:52;98500.72;;;5.32;84.87
41140;BME280;26881;48.784;9.192;2023-12-20T23:01:16;98485.06;;;5.33;85.47
41140;BME280;26881;48.784;9.192;2023-12-20T23:06:38;98472.06;;;5.35;85.77
41140;BME280;26881;48.784;9.192;2023-12-20T23:12:00;98478.81;;;5.39;85.31
41140;BME280;26881;48.784;9.192;2023-12-20T23:17:22;98468.44;;;5.39;85.15
41140;BME280;26881;48.784;9.192;2023-12-20T23:22:44;98467.38;;;5.43;85.39
41140;BME280;26881;48.784;9.192;2023-12-20T23:28:06;98455.53;;;5.37;85.54
41140;BME280;26881;48.784;9.192;2023-12-20T23:33:28;98444.13;;;5.41;85.43
41140;BME280;26881;48.784;9.192;2023-12-20T23:38:50;98425.59;;;5.51;84.43
41140;BME280;26881;48.784;9.192;2023-12-20T23:44:12;98407.34;;;5.52;84.57
41140;BME280;26881;48.784;9.192;2023-12-20T23:49:34;98391.00;;;5.50;84.16
41140;BME280;26881;48.784;9.192;2023-12-20T23:54:56;98374.31;;;5.57;83.51
